Chadstone Weather > Observations for 01/09/20

Select Day:



Observations
Time Temp Hum DP Wind Gust Dir Rain >9am Press
C % C kph kph mm hPa
09:00 9.5 76 5.5 6.6 11.2 NNE 0.0 1028.6
09:10 10.0 75 5.8 5.9 11.2 NNE 0.0 1028.4
09:20 10.2 74 5.8 6.3 12.2 NNE 0.0 1028.5
09:30 10.5 73 5.9 5.7 13.3 NNE 0.0 1028.2
09:40 10.7 71 5.7 7.4 14.8 N 0.0 1028.1
09:50 10.9 67 5.0 10.3 17.3 NNE 0.0 1028.0
10:00 11.2 65 4.9 9.3 18.4 NNE 0.0 1027.8
10:10 11.3 64 4.7 8.9 15.8 NNE 0.0 1027.9
10:20 11.6 63 4.8 8.9 17.3 NNE 0.0 1027.8
10:30 12.0 61 4.7 8.0 13.3 N 0.0 1027.8
10:40 12.2 59 4.4 9.0 18.4 N 0.0 1027.6
10:50 12.3 56 3.8 9.0 17.3 N 0.0 1027.3
11:00 12.6 55 3.8 10.2 22.0 N 0.0 1027.1
11:10 12.9 54 3.8 6.8 17.3 NW 0.0 1026.9
11:20 13.2 55 4.4 8.4 18.4 N 0.0 1027.0
11:30 13.3 54 4.2 5.8 19.4 NNW 0.0 1026.8
11:40 13.6 53 4.2 6.5 18.4 NW 0.0 1026.4
11:50 14.1 51 4.1 8.7 17.3 NW 0.0 1026.3
12:00 14.4 50 4.1 7.5 14.8 N 0.0 1025.8
12:10 14.4 49 3.8 12.5 24.5 NNE 0.0 1025.5
12:20 14.7 49 4.1 10.7 23.4 N 0.0 1025.2
12:30 14.9 47 3.7 13.1 24.5 NNW 0.0 1024.9
12:40 15.2 45 3.4 11.6 22.0 NNW 0.0 1024.6
12:50 15.2 46 3.7 11.8 20.9 NNW 0.0 1024.9
13:00 15.2 45 3.4 13.5 24.5 NNE 0.0 1025.1
13:10 15.5 46 3.9 11.6 28.1 NNW 0.0 1025.4
13:20 15.8 46 4.2 10.1 22.0 N 0.0 1025.4
13:30 15.9 45 4.0 8.4 20.9 NW 0.0 1025.0
13:40 15.9 45 4.0 12.5 24.5 N 0.0 1024.7
13:50 15.9 46 4.3 10.7 25.6 NNW 0.0 1025.0
14:00 15.9 47 4.6 12.5 25.6 NNW 0.0 1024.4
14:10 16.0 46 4.4 12.5 25.6 NNW 0.0 1024.5
14:20 16.1 46 4.5 14.2 30.6 NNW 0.0 1024.6
14:30 16.0 46 4.4 13.4 25.6 N 0.0 1024.6
14:40 16.1 46 4.5 13.1 20.9 N 0.0 1024.4
14:50 16.1 47 4.8 10.3 20.9 NNW 0.0 1024.4
15:00 16.2 48 5.2 10.8 24.5 N 0.0 1024.2
15:10 16.1 49 5.4 10.0 19.4 N 0.0 1024.0
15:20 16.2 49 5.5 10.7 19.4 NNW 0.0 1024.0
15:30 16.1 49 5.4 11.5 20.9 NNE 0.0 1023.8
15:40 16.1 50 5.7 9.8 22.0 NW 0.0 1023.8
15:50 16.1 50 5.7 10.7 22.0 NW 0.0 1023.8
16:00 15.8 51 5.7 12.1 23.4 NNW 0.0 1023.8
16:10 15.6 51 5.5 12.5 22.0 NNW 0.0 1023.6
16:20 15.5 52 5.7 10.5 25.6 NNW 0.0 1023.6
16:30 15.5 53 6.0 10.7 23.4 NW 0.0 1023.8
16:40 15.4 52 5.6 11.8 25.6 NNW 0.0 1023.7
16:50 15.2 52 5.4 12.9 22.0 NNW 0.0 1023.6
17:00 15.1 53 5.6 10.1 22.0 NNW 0.0 1023.6
17:10 15.0 53 5.5 11.2 22.0 NW 0.0 1023.6
17:20 14.8 54 5.6 11.1 24.5 NNW 0.0 1023.6
17:30 14.6 55 5.7 8.4 19.4 NNW 0.0 1023.6
17:40 14.5 54 5.3 11.3 25.6 N 0.0 1023.4
17:50 14.3 54 5.1 10.2 25.6 N 0.0 1023.4
18:00 14.1 54 4.9 12.8 25.6 NNW 0.0 1023.3
18:10 14.0 54 4.8 9.6 18.4 N 0.0 1023.3
18:20 13.7 55 4.8 13.2 28.1 NNW 0.0 1023.2
18:30 13.6 56 5.0 17.2 28.1 N 0.0 1023.2
18:40 13.4 57 5.1 16.4 27.0 N 0.0 1023.1
18:50 13.3 57 5.0 15.5 31.7 N 0.0 1023.0
19:00 13.2 58 5.1 12.6 30.6 NNW 0.0 1023.0
19:10 13.1 58 5.0 12.9 25.6 NNW 0.0 1022.9
19:20 13.0 59 5.2 11.7 27.0 N 0.0 1022.8
19:30 12.9 60 5.3 15.2 27.0 N 0.0 1022.9
19:40 12.8 61 5.5 12.7 24.5 N 0.0 1022.9
19:50 12.7 61 5.4 12.7 23.4 N 0.0 1022.7
20:00 12.6 61 5.3 12.1 23.4 NNW 0.0 1022.8
20:10 12.5 61 5.2 10.1 19.4 N 0.0 1022.7
20:20 12.5 61 5.2 15.9 31.7 N 0.0 1022.3
20:30 12.5 61 5.2 11.3 31.7 N 0.0 1022.2
20:40 12.4 61 5.1 13.3 28.1 NNW 0.0 1022.2
20:50 12.3 62 5.2 13.1 25.6 N 0.0 1022.1
21:00 12.4 62 5.3 12.0 27.0 N 0.0 1022.0
21:10 12.3 62 5.2 10.8 27.0 N 0.0 1021.8
21:20 12.2 62 5.1 10.4 20.9 N 0.0 1021.7
21:30 12.2 63 5.4 10.6 18.4 N 0.0 1021.6
21:40 12.1 63 5.3 10.5 20.9 NNE 0.0 1021.6
21:50 12.0 64 5.4 8.7 15.8 N 0.0 1021.6
22:00 12.0 64 5.4 6.7 13.3 N 0.0 1021.3
22:10 12.0 65 5.6 6.9 14.8 NNE 0.0 1021.2
22:20 11.9 66 5.8 9.5 23.4 NE 0.0 1020.9
22:30 12.0 65 5.6 11.5 23.4 NNE 0.0 1020.8
22:40 12.0 65 5.6 14.1 29.5 N 0.0 1020.8
22:50 12.2 65 5.8 13.4 29.5 NNE 0.0 1020.8
23:00 12.2 64 5.6 10.9 25.6 N 0.0 1020.6
23:10 12.2 64 5.6 10.0 23.4 NNE 0.0 1020.7
23:20 12.1 64 5.5 13.3 22.0 N 0.0 1020.5
23:30 12.1 65 5.7 12.6 24.5 NNW 0.0 1020.4
23:40 12.2 65 5.8 12.8 27.0 N 0.0 1020.5
23:50 12.2 65 5.8 13.5 28.1 N 0.0 1020.3